sensor_id;sensor_type;location;lat;lon;timestamp;pressure;altitude;pressure_sealevel;temperature;humidity
13456;BME280;6800;50.940;6.940;2023-10-08T00:01:40;101523.84;;;25.36;43.53
13456;BME280;6800;50.940;6.940;2023-10-08T00:05:43;101530.16;;;25.27;43.79
13456;BME280;6800;50.940;6.940;2023-10-08T00:09:50;101534.66;;;25.26;43.61
13456;BME280;6800;50.940;6.940;2023-10-08T00:13:52;101536.19;;;25.29;43.71
13456;BME280;6800;50.940;6.940;2023-10-08T00:17:57;101537.28;;;25.10;43.93
13456;BME280;6800;50.940;6.940;2023-10-08T00:22:00;101536.06;;;25.05;44.30
13456;BME280;6800;50.940;6.940;2023-10-08T00:26:08;101537.13;;;25.12;44.02
13456;BME280;6800;50.940;6.940;2023-10-08T00:30:10;101533.00;;;24.92;44.38
13456;BME280;6800;50.940;6.940;2023-10-08T00:34:19;101538.66;;;24.89;44.59
13456;BME280;6800;50.940;6.940;2023-10-08T00:38:21;101540.47;;;24.62;44.80
13456;BME280;6800;50.940;6.940;2023-10-08T00:42:22;101541.59;;;24.77;44.60
13456;BME280;6800;50.940;6.940;2023-10-08T00:46:24;101549.00;;;24.66;45.36
13456;BME280;6800;50.940;6.940;2023-10-08T00:50:27;101548.38;;;24.72;45.13
13456;BME280;6800;50.940;6.940;2023-10-08T00:54:43;101553.00;;;24.62;45.01
13456;BME280;6800;50.940;6.940;2023-10-08T00:59:00;101534.13;;;24.63;45.46
13456;BME280;6800;50.940;6.940;2023-10-08T01:03:05;101534.50;;;24.68;45.22
13456;BME280;6800;50.940;6.940;2023-10-08T01:07:16;101533.28;;;24.63;44.95
13456;BME280;6800;50.940;6.940;2023-10-08T01:11:22;101533.81;;;24.66;44.96
13456;BME280;6800;50.940;6.940;2023-10-08T01:15:35;101553.41;;;24.49;45.02
13456;BME280;6800;50.940;6.940;2023-10-08T01:19:39;101536.88;;;24.54;45.08
13456;BME280;6800;50.940;6.940;2023-10-08T01:23:44;101540.66;;;24.43;45.27
13456;BME280;6800;50.940;6.940;2023-10-08T01:27:47;101539.41;;;24.30;45.47
13456;BME280;6800;50.940;6.940;2023-10-08T01:31:49;101531.16;;;24.23;45.69
13456;BME280;6800;50.940;6.940;2023-10-08T01:35:51;101528.22;;;24.09;45.73
13456;BME280;6800;50.940;6.940;2023-10-08T01:39:52;101528.22;;;24.09;45.61
13456;BME280;6800;50.940;6.940;2023-10-08T01:43:56;101511.63;;;24.05;45.84
13456;BME280;6800;50.940;6.940;2023-10-08T01:48:01;101527.56;;;23.79;46.11
13456;BME280;6800;50.940;6.940;2023-10-08T01:52:02;101547.00;;;23.89;45.85
13456;BME280;6800;50.940;6.940;2023-10-08T01:56:08;101540.19;;;23.77;46.30
13456;BME280;6800;50.940;6.940;2023-10-08T02:00:12;101550.03;;;23.77;46.36
13456;BME280;6800;50.940;6.940;2023-10-08T02:04:21;101561.53;;;23.77;46.38
13456;BME280;6800;50.940;6.940;2023-10-08T02:08:23;101558.78;;;23.69;46.20
13456;BME280;6800;50.940;6.940;2023-10-08T02:12:25;101546.81;;;23.56;46.63
13456;BME280;6800;50.940;6.940;2023-10-08T02:16:26;101540.09;;;23.52;46.40
13456;BME280;6800;50.940;6.940;2023-10-08T02:20:29;101533.00;;;23.43;46.88
13456;BME280;6800;50.940;6.940;2023-10-08T02:24:31;101532.59;;;23.38;47.07
13456;BME280;6800;50.940;6.940;2023-10-08T02:28:32;101542.88;;;23.23;47.01
13456;BME280;6800;50.940;6.940;2023-10-08T02:32:34;101556.72;;;23.26;47.33
13456;BME280;6800;50.940;6.940;2023-10-08T02:36:39;101549.13;;;23.32;47.36
13456;BME280;6800;50.940;6.940;2023-10-08T02:40:45;101554.47;;;23.32;47.03
13456;BME280;6800;50.940;6.940;2023-10-08T02:44:48;101551.13;;;23.29;47.24
13456;BME280;6800;50.940;6.940;2023-10-08T02:48:52;101547.47;;;23.31;46.90
13456;BME280;6800;50.940;6.940;2023-10-08T02:52:54;101552.09;;;23.38;46.56
13456;BME280;6800;50.940;6.940;2023-10-08T02:56:55;101552.53;;;23.34;47.09
13456;BME280;6800;50.940;6.940;2023-10-08T03:00:59;101539.28;;;23.42;46.69
13456;BME280;6800;50.940;6.940;2023-10-08T03:05:01;101551.03;;;23.49;46.35
13456;BME280;6800;50.940;6.940;2023-10-08T03:09:03;101533.91;;;23.51;45.87
13456;BME280;6800;50.940;6.940;2023-10-08T03:13:05;101543.50;;;23.44;46.46
13456;BME280;6800;50.940;6.940;2023-10-08T03:17:08;101548.56;;;23.38;46.60
13456;BME280;6800;50.940;6.940;2023-10-08T03:21:10;101563.41;;;23.50;46.16
13456;BME280;6800;50.940;6.940;2023-10-08T03:25:25;101564.81;;;23.44;46.26
13456;BME280;6800;50.940;6.940;2023-10-08T03:29:27;101572.28;;;23.41;46.25
13456;BME280;6800;50.940;6.940;2023-10-08T03:33:35;101578.59;;;23.40;46.18
13456;BME280;6800;50.940;6.940;2023-10-08T03:37:39;101576.31;;;23.45;46.18
13456;BME280;6800;50.940;6.940;2023-10-08T03:41:47;101578.28;;;23.43;46.20
13456;BME280;6800;50.940;6.940;2023-10-08T03:46:08;101576.91;;;23.39;46.22
13456;BME280;6800;50.940;6.940;2023-10-08T03:50:16;101582.84;;;23.33;46.20
13456;BME280;6800;50.940;6.940;2023-10-08T03:54:20;101577.22;;;23.26;46.18
13456;BME280;6800;50.940;6.940;2023-10-08T03:58:30;101582.13;;;23.31;46.37
13456;BME280;6800;50.940;6.940;2023-10-08T04:02:35;101587.28;;;23.32;46.10
13456;BME280;6800;50.940;6.940;2023-10-08T04:06:48;101603.41;;;23.40;46.30
13456;BME280;6800;50.940;6.940;2023-10-08T04:10:50;101568.94;;;23.39;46.02
13456;BME280;6800;50.940;6.940;2023-10-08T04:15:14;101568.94;;;23.39;46.33
13456;BME280;6800;50.940;6.940;2023-10-08T04:19:22;101570.25;;;23.15;46.78
13456;BME280;6800;50.940;6.940;2023-10-08T04:23:31;101578.69;;;23.11;46.59
13456;BME280;6800;50.940;6.940;2023-10-08T04:27:33;101566.59;;;23.16;46.67
13456;BME280;6800;50.940;6.940;2023-10-08T04:31:35;101574.91;;;23.13;46.95
13456;BME280;6800;50.940;6.940;2023-10-08T04:35:47;101577.84;;;23.10;46.56
13456;BME280;6800;50.940;6.940;2023-10-08T04:39:50;101572.66;;;23.09;46.85
13456;BME280;6800;50.940;6.940;2023-10-08T04:44:00;101569.75;;;23.02;47.00
13456;BME280;6800;50.940;6.940;2023-10-08T04:48:08;101549.44;;;22.92;46.96
13456;BME280;6800;50.940;6.940;2023-10-08T04:52:11;101573.31;;;22.74;47.58
13456;BME280;6800;50.940;6.940;2023-10-08T04:56:15;101603.00;;;22.89;47.15
13456;BME280;6800;50.940;6.940;2023-10-08T05:00:20;101605.81;;;22.78;47.71
13456;BME280;6800;50.940;6.940;2023-10-08T05:04:41;101617.03;;;22.81;47.63
13456;BME280;6800;50.940;6.940;2023-10-08T05:08:57;101624.41;;;22.97;47.11
13456;BME280;6800;50.940;6.940;2023-10-08T05:13:12;101601.59;;;22.94;47.04
13456;BME280;6800;50.940;6.940;2023-10-08T05:17:13;101598.81;;;22.77;47.41
13456;BME280;6800;50.940;6.940;2023-10-08T05:21:17;101597.81;;;22.87;47.41
13456;BME280;6800;50.940;6.940;2023-10-08T05:25:29;101597.28;;;22.74;47.87
13456;BME280;6800;50.940;6.940;2023-10-08T05:29:41;101597.56;;;22.71;47.36
13456;BME280;6800;50.940;6.940;2023-10-08T05:34:03;101611.03;;;22.60;47.61
13456;BME280;6800;50.940;6.940;2023-10-08T05:38:24;101627.25;;;22.47;48.37
13456;BME280;6800;50.940;6.940;2023-10-08T05:42:31;101631.06;;;22.64;47.83
13456;BME280;6800;50.940;6.940;2023-10-08T05:46:33;101632.16;;;22.52;48.00
13456;BME280;6800;50.940;6.940;2023-10-08T05:50:34;101637.06;;;22.47;48.42
13456;BME280;6800;50.940;6.940;2023-10-08T05:54:56;101651.78;;;22.41;48.62
13456;BME280;6800;50.940;6.940;2023-10-08T05:59:16;101669.25;;;22.34;49.21
13456;BME280;6800;50.940;6.940;2023-10-08T06:03:20;101672.50;;;22.47;48.68
13456;BME280;6800;50.940;6.940;2023-10-08T06:07:34;101667.44;;;22.44;48.65
13456;BME280;6800;50.940;6.940;2023-10-08T06:11:49;101674.78;;;22.62;48.54
13456;BME280;6800;50.940;6.940;2023-10-08T06:16:12;101679.84;;;22.65;48.32
13456;BME280;6800;50.940;6.940;2023-10-08T06:20:34;101677.16;;;22.65;48.19
13456;BME280;6800;50.940;6.940;2023-10-08T06:24:36;101676.97;;;22.57;48.75
13456;BME280;6800;50.940;6.940;2023-10-08T06:28:42;101673.22;;;22.78;48.18
13456;BME280;6800;50.940;6.940;2023-10-08T06:32:44;101640.44;;;22.68;48.12
13456;BME280;6800;50.940;6.940;2023-10-08T06:36:47;101643.91;;;22.97;47.89
13456;BME280;6800;50.940;6.940;2023-10-08T06:40:49;101640.13;;;23.09;47.43
13456;BME280;6800;50.940;6.940;2023-10-08T06:44:50;101653.41;;;23.19;47.20
13456;BME280;6800;50.940;6.940;2023-10-08T06:48:54;101659.00;;;23.25;46.90
13456;BME280;6800;50.940;6.940;2023-10-08T06:52:55;101671.72;;;23.32;46.84
13456;BME280;6800;50.940;6.940;2023-10-08T06:56:57;101671.03;;;23.29;46.95
13456;BME280;6800;50.940;6.940;2023-10-08T07:00:59;101688.00;;;23.38;46.96
13456;BME280;6800;50.940;6.940;2023-10-08T07:05:06;101681.50;;;23.50;46.79
13456;BME280;6800;50.940;6.940;2023-10-08T07:09:11;101683.03;;;23.62;46.58
13456;BME280;6800;50.940;6.940;2023-10-08T07:13:23;101662.88;;;23.77;46.01
13456;BME280;6800;50.940;6.940;2023-10-08T07:17:25;101671.72;;;24.05;45.43
13456;BME280;6800;50.940;6.940;2023-10-08T07:21:29;101669.78;;;23.97;45.87
13456;BME280;6800;50.940;6.940;2023-10-08T07:25:39;101663.72;;;24.05;45.60
13456;BME280;6800;50.940;6.940;2023-10-08T07:29:40;101670.84;;;24.14;45.63
13456;BME280;6800;50.940;6.940;2023-10-08T07:33:43;101675.13;;;24.25;45.71
13456;BME280;6800;50.940;6.940;2023-10-08T07:37:45;101670.72;;;24.33;45.59
13456;BME280;6800;50.940;6.940;2023-10-08T07:41:46;101673.25;;;24.52;44.53
13456;BME280;6800;50.940;6.940;2023-10-08T07:45:49;101696.50;;;25.13;43.92
13456;BME280;6800;50.940;6.940;2023-10-08T07:49:50;101695.31;;;25.41;43.42
13456;BME280;6800;50.940;6.940;2023-10-08T07:53:53;101705.00;;;25.34;43.25
13456;BME280;6800;50.940;6.940;2023-10-08T07:57:58;101718.34;;;25.08;43.94
13456;BME280;6800;50.940;6.940;2023-10-08T08:02:00;101715.72;;;25.16;44.02
13456;BME280;6800;50.940;6.940;2023-10-08T08:06:05;101727.69;;;25.30;43.70
13456;BME280;6800;50.940;6.940;2023-10-08T08:10:07;101724.94;;;25.65;43.14
13456;BME280;6800;50.940;6.940;2023-10-08T08:14:15;101723.78;;;26.01;42.17
13456;BME280;6800;50.940;6.940;2023-10-08T08:18:26;101715.72;;;25.93;41.80
13456;BME280;6800;50.940;6.940;2023-10-08T08:22:34;101725.72;;;26.25;41.73
13456;BME280;6800;50.940;6.940;2023-10-08T08:26:41;101731.59;;;25.95;42.24
13456;BME280;6800;50.940;6.940;2023-10-08T08:31:04;101740.78;;;25.59;43.10
13456;BME280;6800;50.940;6.940;2023-10-08T08:35:11;101736.06;;;25.35;43.91
13456;BME280;6800;50.940;6.940;2023-10-08T08:39:13;101734.63;;;25.40;43.91
13456;BME280;6800;50.940;6.940;2023-10-08T08:43:25;101726.16;;;25.27;43.98
13456;BME280;6800;50.940;6.940;2023-10-08T08:47:27;101724.84;;;25.49;43.79
13456;BME280;6800;50.940;6.940;2023-10-08T08:51:31;101736.56;;;25.82;42.53
13456;BME280;6800;50.940;6.940;2023-10-08T08:55:33;101747.09;;;25.83;43.02
13456;BME280;6800;50.940;6.940;2023-10-08T08:59:34;101750.41;;;25.77;42.70
13456;BME280;6800;50.940;6.940;2023-10-08T09:03:38;101751.09;;;25.79;43.16
13456;BME280;6800;50.940;6.940;2023-10-08T09:08:05;101754.56;;;26.05;42.41
13456;BME280;6800;50.940;6.940;2023-10-08T09:12:07;101734.25;;;26.20;42.33
13456;BME280;6800;50.940;6.940;2023-10-08T09:16:14;101736.72;;;26.72;41.36
13456;BME280;6800;50.940;6.940;2023-10-08T09:20:16;101723.66;;;27.33;40.45
13456;BME280;6800;50.940;6.940;2023-10-08T09:24:18;101732.59;;;27.97;39.30
13456;BME280;6800;50.940;6.940;2023-10-08T09:28:24;101741.28;;;27.52;40.39
13456;BME280;6800;50.940;6.940;2023-10-08T09:32:26;101741.13;;;27.37;40.69
13456;BME280;6800;50.940;6.940;2023-10-08T09:36:31;101741.44;;;27.02;40.91
13456;BME280;6800;50.940;6.940;2023-10-08T09:40:35;101772.63;;;26.87;41.66
13456;BME280;6800;50.940;6.940;2023-10-08T09:44:37;101772.47;;;27.37;40.87
13456;BME280;6800;50.940;6.940;2023-10-08T09:48:41;101776.59;;;26.83;42.29
13456;BME280;6800;50.940;6.940;2023-10-08T09:52:49;101771.28;;;27.07;41.36
13456;BME280;6800;50.940;6.940;2023-10-08T09:56:58;101778.25;;;26.18;43.16
13456;BME280;6800;50.940;6.940;2023-10-08T10:01:00;101784.53;;;27.25;41.43
13456;BME280;6800;50.940;6.940;2023-10-08T10:05:03;101786.91;;;27.36;40.99
13456;BME280;6800;50.940;6.940;2023-10-08T10:09:07;101786.00;;;27.75;40.45
13456;BME280;6800;50.940;6.940;2023-10-08T10:13:17;101785.84;;;27.53;40.65
13456;BME280;6800;50.940;6.940;2023-10-08T10:17:20;101789.84;;;27.81;40.36
13456;BME280;6800;50.940;6.940;2023-10-08T10:21:43;101786.59;;;27.94;40.75
13456;BME280;6800;50.940;6.940;2023-10-08T10:25:46;101788.72;;;27.51;41.02
13456;BME280;6800;50.940;6.940;2023-10-08T10:29:49;101784.22;;;27.36;42.14
13456;BME280;6800;50.940;6.940;2023-10-08T10:33:51;101788.38;;;27.22;42.51
13456;BME280;6800;50.940;6.940;2023-10-08T10:37:52;101781.59;;;27.82;40.88
13456;BME280;6800;50.940;6.940;2023-10-08T10:41:56;101794.91;;;28.23;40.41
13456;BME280;6800;50.940;6.940;2023-10-08T10:46:04;101784.25;;;28.76;39.11
13456;BME280;6800;50.940;6.940;2023-10-08T10:50:25;101775.97;;;28.86;39.48
13456;BME280;6800;50.940;6.940;2023-10-08T10:54:33;101771.53;;;28.70;39.36
13456;BME280;6800;50.940;6.940;2023-10-08T10:58:37;101774.22;;;28.70;38.92
13456;BME280;6800;50.940;6.940;2023-10-08T11:02:43;101773.22;;;28.71;39.41
13456;BME280;6800;50.940;6.940;2023-10-08T11:06:51;101768.72;;;28.64;39.72
13456;BME280;6800;50.940;6.940;2023-10-08T11:10:53;101765.38;;;29.29;38.85
13456;BME280;6800;50.940;6.940;2023-10-08T11:14:54;101771.38;;;29.54;38.86
13456;BME280;6800;50.940;6.940;2023-10-08T11:18:58;101761.28;;;29.71;37.92
13456;BME280;6800;50.940;6.940;2023-10-08T11:23:02;101772.94;;;29.63;38.59
13456;BME280;6800;50.940;6.940;2023-10-08T11:27:19;101778.28;;;29.34;38.57
13456;BME280;6800;50.940;6.940;2023-10-08T11:31:30;101779.25;;;28.73;40.12
13456;BME280;6800;50.940;6.940;2023-10-08T11:35:35;101768.00;;;28.39;40.74
13456;BME280;6800;50.940;6.940;2023-10-08T11:39:40;101771.06;;;28.89;40.08
13456;BME280;6800;50.940;6.940;2023-10-08T11:43:50;101755.38;;;29.53;39.13
13456;BME280;6800;50.940;6.940;2023-10-08T11:47:55;101756.72;;;30.15;38.01
13456;BME280;6800;50.940;6.940;2023-10-08T11:52:04;101760.50;;;29.48;38.35
13456;BME280;6800;50.940;6.940;2023-10-08T11:56:06;101745.38;;;30.20;37.81
13456;BME280;6800;50.940;6.940;2023-10-08T12:00:15;101738.31;;;30.33;37.12
13456;BME280;6800;50.940;6.940;2023-10-08T12:04:33;101745.34;;;30.49;36.44
13456;BME280;6800;50.940;6.940;2023-10-08T12:08:34;101747.75;;;29.79;38.42
13456;BME280;6800;50.940;6.940;2023-10-08T12:12:40;101744.88;;;29.06;40.19
13456;BME280;6800;50.940;6.940;2023-10-08T12:16:42;101738.00;;;29.26;39.85
13456;BME280;6800;50.940;6.940;2023-10-08T12:20:44;101729.91;;;29.03;40.58
13456;BME280;6800;50.940;6.940;2023-10-08T12:24:46;101716.41;;;28.13;41.69
13456;BME280;6800;50.940;6.940;2023-10-08T12:28:48;101727.38;;;27.24;44.73
13456;BME280;6800;50.940;6.940;2023-10-08T12:32:50;101722.31;;;28.08;42.91
13456;BME280;6800;50.940;6.940;2023-10-08T12:36:51;101717.16;;;28.29;42.52
13456;BME280;6800;50.940;6.940;2023-10-08T12:40:53;101725.25;;;28.52;42.08
13456;BME280;6800;50.940;6.940;2023-10-08T12:44:55;101732.13;;;28.54;42.20
13456;BME280;6800;50.940;6.940;2023-10-08T12:48:59;101728.50;;;27.54;44.13
13456;BME280;6800;50.940;6.940;2023-10-08T12:53:02;101708.84;;;27.61;43.87
13456;BME280;6800;50.940;6.940;2023-10-08T12:57:05;101713.97;;;27.08;44.77
13456;BME280;6800;50.940;6.940;2023-10-08T13:01:10;101709.41;;;27.49;45.10
13456;BME280;6800;50.940;6.940;2023-10-08T13:05:12;101696.00;;;26.68;46.67
13456;BME280;6800;50.940;6.940;2023-10-08T13:09:17;101685.63;;;27.22;44.88
13456;BME280;6800;50.940;6.940;2023-10-08T13:13:18;101672.34;;;27.52;44.82
13456;BME280;6800;50.940;6.940;2023-10-08T13:17:20;101678.69;;;27.59;44.21
13456;BME280;6800;50.940;6.940;2023-10-08T13:21:22;101670.63;;;27.59;44.09
13456;BME280;6800;50.940;6.940;2023-10-08T13:25:26;101669.28;;;28.02;43.47
13456;BME280;6800;50.940;6.940;2023-10-08T13:29:28;101668.13;;;28.27;42.66
13456;BME280;6800;50.940;6.940;2023-10-08T13:33:34;101663.75;;;27.96;43.50
13456;BME280;6800;50.940;6.940;2023-10-08T13:37:35;101667.69;;;26.66;46.66
13456;BME280;6800;50.940;6.940;2023-10-08T13:41:37;101663.22;;;26.90;46.64
13456;BME280;6800;50.940;6.940;2023-10-08T13:45:40;101669.88;;;27.19;45.94
13456;BME280;6800;50.940;6.940;2023-10-08T13:49:43;101656.94;;;27.46;46.76
13456;BME280;6800;50.940;6.940;2023-10-08T13:53:51;101654.69;;;26.87;48.73
13456;BME280;6800;50.940;6.940;2023-10-08T13:58:01;101649.56;;;26.19;49.91
13456;BME280;6800;50.940;6.940;2023-10-08T14:02:03;101639.00;;;26.10;49.65
13456;BME280;6800;50.940;6.940;2023-10-08T14:06:15;101639.59;;;26.86;47.87
13456;BME280;6800;50.940;6.940;2023-10-08T14:10:17;101626.28;;;27.25;47.06
13456;BME280;6800;50.940;6.940;2023-10-08T14:14:30;101620.72;;;27.34;46.68
13456;BME280;6800;50.940;6.940;2023-10-08T14:18:32;101614.41;;;27.66;45.32
13456;BME280;6800;50.940;6.940;2023-10-08T14:22:42;101616.00;;;27.83;44.46
13456;BME280;6800;50.940;6.940;2023-10-08T14:26:45;101618.63;;;27.60;45.07
13456;BME280;6800;50.940;6.940;2023-10-08T14:30:53;101609.97;;;27.34;45.50
13456;BME280;6800;50.940;6.940;2023-10-08T14:34:57;101618.38;;;27.23;46.22
13456;BME280;6800;50.940;6.940;2023-10-08T14:38:58;101613.19;;;27.30;45.96
13456;BME280;6800;50.940;6.940;2023-10-08T14:43:18;101596.75;;;27.41;45.74
13456;BME280;6800;50.940;6.940;2023-10-08T14:47:24;101588.53;;;27.34;45.31
13456;BME280;6800;50.940;6.940;2023-10-08T14:51:25;101588.63;;;27.10;46.07
13456;BME280;6800;50.940;6.940;2023-10-08T14:55:27;101582.41;;;27.10;45.52
13456;BME280;6800;50.940;6.940;2023-10-08T14:59:31;101593.69;;;26.73;46.71
13456;BME280;6800;50.940;6.940;2023-10-08T15:03:33;101605.75;;;26.85;46.40
13456;BME280;6800;50.940;6.940;2023-10-08T15:07:38;101601.41;;;26.76;46.51
13456;BME280;6800;50.940;6.940;2023-10-08T15:11:40;101599.22;;;26.87;46.00
13456;BME280;6800;50.940;6.940;2023-10-08T15:15:42;101598.06;;;26.74;46.78
13456;BME280;6800;50.940;6.940;2023-10-08T15:19:44;101601.72;;;26.65;47.03
13456;BME280;6800;50.940;6.940;2023-10-08T15:23:47;101599.22;;;26.79;47.14
13456;BME280;6800;50.940;6.940;2023-10-08T15:27:49;101597.69;;;26.85;46.88
13456;BME280;6800;50.940;6.940;2023-10-08T15:31:50;101597.03;;;26.75;47.19
13456;BME280;6800;50.940;6.940;2023-10-08T15:35:53;101602.41;;;26.75;47.20
13456;BME280;6800;50.940;6.940;2023-10-08T15:39:54;101606.06;;;26.58;47.43
13456;BME280;6800;50.940;6.940;2023-10-08T15:43:57;101597.78;;;26.03;49.07
13456;BME280;6800;50.940;6.940;2023-10-08T15:48:01;101597.03;;;26.26;48.36
13456;BME280;6800;50.940;6.940;2023-10-08T15:52:03;101589.00;;;26.43;48.29
13456;BME280;6800;50.940;6.940;2023-10-08T15:56:06;101582.16;;;26.40;48.44
13456;BME280;6800;50.940;6.940;2023-10-08T16:00:08;101581.63;;;26.37;49.09
13456;BME280;6800;50.940;6.940;2023-10-08T16:04:09;101573.59;;;26.37;49.07
13456;BME280;6800;50.940;6.940;2023-10-08T16:08:11;101575.94;;;26.40;48.77
13456;BME280;6800;50.940;6.940;2023-10-08T16:12:13;101579.78;;;26.29;49.05
13456;BME280;6800;50.940;6.940;2023-10-08T16:16:14;101576.53;;;25.93;49.68
13456;BME280;6800;50.940;6.940;2023-10-08T16:20:16;101568.56;;;26.09;49.61
13456;BME280;6800;50.940;6.940;2023-10-08T16:24:18;101569.50;;;26.00;49.51
13456;BME280;6800;50.940;6.940;2023-10-08T16:28:20;101575.34;;;25.88;50.00
13456;BME280;6800;50.940;6.940;2023-10-08T16:32:21;101582.00;;;25.76;50.35
13456;BME280;6800;50.940;6.940;2023-10-08T16:36:23;101577.34;;;25.78;50.39
13456;BME280;6800;50.940;6.940;2023-10-08T16:40:24;101571.28;;;25.60;50.43
13456;BME280;6800;50.940;6.940;2023-10-08T16:44:26;101570.75;;;25.64;50.36
13456;BME280;6800;50.940;6.940;2023-10-08T16:48:27;101577.97;;;25.64;50.34
13456;BME280;6800;50.940;6.940;2023-10-08T16:52:29;101572.72;;;25.46;50.87
13456;BME280;6800;50.940;6.940;2023-10-08T16:56:30;101580.59;;;25.22;51.47
13456;BME280;6800;50.940;6.940;2023-10-08T17:00:32;101570.53;;;25.16;52.16
13456;BME280;6800;50.940;6.940;2023-10-08T17:04:34;101570.72;;;25.14;51.90
13456;BME280;6800;50.940;6.940;2023-10-08T17:08:36;101579.38;;;25.08;52.54
13456;BME280;6800;50.940;6.940;2023-10-08T17:12:39;101577.25;;;24.94;52.94
13456;BME280;6800;50.940;6.940;2023-10-08T17:16:42;101588.91;;;24.85;53.22
13456;BME280;6800;50.940;6.940;2023-10-08T17:20:43;101586.53;;;24.82;53.73
13456;BME280;6800;50.940;6.940;2023-10-08T17:24:44;101583.50;;;25.03;53.74
13456;BME280;6800;50.940;6.940;2023-10-08T17:28:46;101578.16;;;25.03;53.56
13456;BME280;6800;50.940;6.940;2023-10-08T17:32:48;101564.88;;;24.85;53.99
13456;BME280;6800;50.940;6.940;2023-10-08T17:36:50;101562.00;;;24.78;54.17
13456;BME280;6800;50.940;6.940;2023-10-08T17:40:52;101561.56;;;24.73;54.28
13456;BME280;6800;50.940;6.940;2023-10-08T17:44:55;101563.06;;;24.68;54.56
13456;BME280;6800;50.940;6.940;2023-10-08T17:48:56;101545.88;;;24.70;54.86
13456;BME280;6800;50.940;6.940;2023-10-08T17:52:58;101544.88;;;24.71;54.59
13456;BME280;6800;50.940;6.940;2023-10-08T17:57:03;101540.56;;;24.53;55.11
13456;BME280;6800;50.940;6.940;2023-10-08T18:01:14;101535.22;;;24.53;55.62
13456;BME280;6800;50.940;6.940;2023-10-08T18:05:17;101535.47;;;24.42;55.88
13456;BME280;6800;50.940;6.940;2023-10-08T18:09:20;101535.25;;;24.35;56.21
13456;BME280;6800;50.940;6.940;2023-10-08T18:13:22;101526.28;;;24.36;55.70
13456;BME280;6800;50.940;6.940;2023-10-08T18:17:31;101539.84;;;24.25;56.32
13456;BME280;6800;50.940;6.940;2023-10-08T18:21:34;101534.44;;;24.17;56.43
13456;BME280;6800;50.940;6.940;2023-10-08T18:25:38;101527.19;;;24.10;56.59
13456;BME280;6800;50.940;6.940;2023-10-08T18:29:41;101515.72;;;24.09;57.03
13456;BME280;6800;50.940;6.940;2023-10-08T18:33:43;101512.47;;;24.23;56.82
13456;BME280;6800;50.940;6.940;2023-10-08T18:37:44;101524.06;;;24.14;57.19
13456;BME280;6800;50.940;6.940;2023-10-08T18:41:46;101528.09;;;24.18;57.26
13456;BME280;6800;50.940;6.940;2023-10-08T18:45:48;101513.03;;;24.09;57.38
13456;BME280;6800;50.940;6.940;2023-10-08T18:49:51;101510.56;;;24.16;57.18
13456;BME280;6800;50.940;6.940;2023-10-08T18:54:04;101509.66;;;24.07;57.35
13456;BME280;6800;50.940;6.940;2023-10-08T18:58:07;101508.75;;;23.98;57.48
13456;BME280;6800;50.940;6.940;2023-10-08T19:02:09;101508.19;;;23.95;57.87
13456;BME280;6800;50.940;6.940;2023-10-08T19:06:11;101499.22;;;24.14;57.63
13456;BME280;6800;50.940;6.940;2023-10-08T19:10:12;101489.16;;;24.08;57.51
13456;BME280;6800;50.940;6.940;2023-10-08T19:14:16;101495.09;;;24.01;57.68
13456;BME280;6800;50.940;6.940;2023-10-08T19:18:18;101481.06;;;23.99;57.73
13456;BME280;6800;50.940;6.940;2023-10-08T19:22:20;101486.56;;;23.80;58.64
13456;BME280;6800;50.940;6.940;2023-10-08T19:26:21;101484.56;;;23.82;58.76
13456;BME280;6800;50.940;6.940;2023-10-08T19:30:31;101484.81;;;23.89;58.04
13456;BME280;6800;50.940;6.940;2023-10-08T19:34:35;101484.81;;;23.89;58.24
13456;BME280;6800;50.940;6.940;2023-10-08T19:38:37;101490.00;;;23.73;58.63
13456;BME280;6800;50.940;6.940;2023-10-08T19:42:40;101476.72;;;23.81;58.97
13456;BME280;6800;50.940;6.940;2023-10-08T19:46:46;101466.13;;;23.89;58.65
13456;BME280;6800;50.940;6.940;2023-10-08T19:50:48;101456.16;;;23.91;58.95
13456;BME280;6800;50.940;6.940;2023-10-08T19:54:52;101462.78;;;23.87;58.93
13456;BME280;6800;50.940;6.940;2023-10-08T19:58:53;101460.66;;;23.73;59.24
13456;BME280;6800;50.940;6.940;2023-10-08T20:02:56;101456.31;;;23.72;59.12
13456;BME280;6800;50.940;6.940;2023-10-08T20:06:58;101460.50;;;23.57;59.98
13456;BME280;6800;50.940;6.940;2023-10-08T20:11:00;101460.41;;;23.49;60.25
13456;BME280;6800;50.940;6.940;2023-10-08T20:15:02;101457.94;;;23.38;60.51
13456;BME280;6800;50.940;6.940;2023-10-08T20:19:03;101459.13;;;23.25;61.32
13456;BME280;6800;50.940;6.940;2023-10-08T20:23:06;101458.97;;;23.27;61.34
13456;BME280;6800;50.940;6.940;2023-10-08T20:27:11;101450.13;;;23.36;61.49
13456;BME280;6800;50.940;6.940;2023-10-08T20:31:16;101461.97;;;23.24;61.72
13456;BME280;6800;50.940;6.940;2023-10-08T20:35:18;101469.38;;;23.20;61.79
13456;BME280;6800;50.940;6.940;2023-10-08T20:39:19;101457.06;;;23.19;61.89
13456;BME280;6800;50.940;6.940;2023-10-08T20:43:30;101455.13;;;23.12;61.90
13456;BME280;6800;50.940;6.940;2023-10-08T20:47:34;101458.09;;;23.09;62.80
13456;BME280;6800;50.940;6.940;2023-10-08T20:51:36;101445.75;;;22.90;63.37
13456;BME280;6800;50.940;6.940;2023-10-08T20:55:39;101443.94;;;22.81;63.72
13456;BME280;6800;50.940;6.940;2023-10-08T21:00:03;101438.28;;;22.67;63.98
13456;BME280;6800;50.940;6.940;2023-10-08T21:04:04;101438.00;;;22.50;64.76
13456;BME280;6800;50.940;6.940;2023-10-08T21:08:07;101437.28;;;22.58;64.56
13456;BME280;6800;50.940;6.940;2023-10-08T21:12:09;101435.66;;;22.47;64.62
13456;BME280;6800;50.940;6.940;2023-10-08T21:16:13;101438.44;;;22.46;65.03
13456;BME280;6800;50.940;6.940;2023-10-08T21:20:18;101439.69;;;22.51;64.57
13456;BME280;6800;50.940;6.940;2023-10-08T21:24:20;101429.78;;;22.34;65.07
13456;BME280;6800;50.940;6.940;2023-10-08T21:28:22;101429.22;;;22.40;64.71
13456;BME280;6800;50.940;6.940;2023-10-08T21:32:24;101428.28;;;22.22;65.23
13456;BME280;6800;50.940;6.940;2023-10-08T21:36:25;101431.50;;;22.26;64.92